2G4

Garrett County Airport

Oakland, Maryland, USA
METAR K2G4 181120Z AUTO 30006KT 10SM SCT021 M01/M02 A3035 RMK AO1
Observed Flight Rules
Oct-18 @ 11:20 UTC (11 minutes ago) Visual Flight Rules
Wind Visibility Clouds
300° at 6 knots 10 miles
  • Scattered at 2,100' AGL
Temperatures Readings
Current -1°C / 30°F
Dewpoint -2°C / 28°F
Humidity 93%
Altimeter 30.35" Hg
Pressure 1028 hPa
Elevation 894
METAR K2G4 181120Z AUTO 30006KT 10SM SCT021 M01/M02 A3035 RMK AO1
Observed Flight Rules
Oct-18 @ 11:20 UTC
(11 minutes ago)
VFR
Wind Visibility
300° at 6 knots 10 miles
Clouds
  • Scattered at 2,100' AGL
Temperature Dewpoint
-1°C / 30°F -2°C / 28°F
Humidity Altimeter Pressure
93% 30.35" Hg 1028 hPa